Time;durP1;ratioP1;P1;durP2;ratioP2;P2;SDS_P1;SDS_P2;PMS_P1;PMS_P2;Temp;Humidity;BMP_temperature;BMP_pressure;BME280_temperature;BME280_humidity;BME280_pressure;Samples;Min_cycle;Max_cycle;Signal;HPM_P1;HPM_P2
2023/03/12 00:00:42;;;;;;;49.13;47.28;;;-1.80;88.40;;;;;;5073634;28;20047;-75
2023/03/12 00:03:07;;;;;;;46.67;44.97;;;-1.90;89.60;;;;;;5083043;28;20035;-75
2023/03/12 00:05:36;;;;;;;40.85;39.33;;;-2.00;88.70;;;;;;5073643;28;20032;-75
2023/03/12 00:08:01;;;;;;;41.75;40.10;;;-2.10;88.80;;;;;;5077685;28;20051;-75
2023/03/12 00:10:28;;;;;;;41.30;39.80;;;-2.10;89.00;;;;;;5075348;28;20486;-75
2023/03/12 00:12:54;;;;;;;50.15;48.30;;;-2.10;88.60;;;;;;5066764;28;20170;-75
2023/03/12 00:15:20;;;;;;;61.13;58.92;;;-2.00;89.30;;;;;;5089737;28;20511;-75
2023/03/12 00:17:46;;;;;;;78.28;75.45;;;-2.00;90.00;;;;;;5071302;28;20055;-75
2023/03/12 00:20:12;;;;;;;64.47;62.10;;;-2.00;90.40;;;;;;5078150;28;20071;-75
2023/03/12 00:22:38;;;;;;;55.33;53.28;;;-2.00;90.30;;;;;;5085371;28;20536;-75
2023/03/12 00:25:10;;;;;;;53.50;51.47;;;-2.10;90.30;;;;;;5069766;28;20518;-75
2023/03/12 00:27:36;;;;;;;50.97;49.13;;;-2.10;90.10;;;;;;5073310;28;20371;-75
2023/03/12 00:30:03;;;;;;;50.88;48.58;;;-2.10;89.80;;;;;;5075170;28;20028;-75
2023/03/12 00:32:31;;;;;;;50.00;48.15;;;-2.20;89.90;;;;;;5090609;28;20028;-75
2023/03/12 00:34:56;;;;;;;46.72;44.95;;;-2.20;88.80;;;;;;5073709;28;20028;-75
2023/03/12 00:37:22;;;;;;;60.63;58.42;;;-2.20;88.50;;;;;;5072722;28;20032;-74
2023/03/12 00:39:47;;;;;;;59.55;57.40;;;-2.10;88.60;;;;;;5075965;28;20445;-75
2023/03/12 00:42:13;;;;;;;61.15;58.90;;;-2.10;88.40;;;;;;5081257;28;20032;-74
2023/03/12 00:44:39;;;;;;;56.95;54.85;;;-2.10;88.60;;;;;;5080747;28;20059;-75
2023/03/12 00:47:05;;;;;;;59.47;57.33;;;-2.10;89.10;;;;;;5078026;28;20028;-75
2023/03/12 00:49:31;;;;;;;65.93;63.55;;;-2.20;89.50;;;;;;5076010;28;20293;-75
2023/03/12 00:51:56;;;;;;;63.03;60.75;;;-2.20;89.90;;;;;;5078122;28;20036;-75
2023/03/12 00:54:22;;;;;;;67.90;65.38;;;-2.20;90.10;;;;;;5085570;28;20035;-75
2023/03/12 00:56:48;;;;;;;63.70;61.42;;;-2.20;90.20;;;;;;5072445;28;20040;-75
2023/03/12 00:59:14;;;;;;;62.58;60.28;;;-2.30;90.20;;;;;;5086665;28;20058;-74
2023/03/12 01:01:41;;;;;;;64.57;61.95;;;-2.30;90.20;;;;;;5089981;28;20115;-76
2023/03/12 01:04:06;;;;;;;62.85;60.45;;;-2.30;90.20;;;;;;5088762;28;20020;-73
2023/03/12 01:06:32;;;;;;;59.90;57.33;;;-2.30;90.20;;;;;;5070121;28;20028;-75
2023/03/12 01:08:59;;;;;;;54.53;52.55;;;-2.20;90.30;;;;;;5072641;28;20468;-75
2023/03/12 01:11:25;;;;;;;68.82;66.32;;;-2.30;90.00;;;;;;5071084;28;20046;-75
2023/03/12 01:13:50;;;;;;;76.72;73.80;;;-2.30;90.00;;;;;;5089397;28;20140;-74
2023/03/12 01:16:16;;;;;;;130.98;125.45;;;-2.20;89.70;;;;;;5071522;28;20027;-75
2023/03/12 01:18:42;;;;;;;87.65;84.43;;;-2.10;89.80;;;;;;5071944;28;20028;-75
2023/03/12 01:21:07;;;;;;;59.65;57.42;;;-2.00;90.10;;;;;;5089242;28;20028;-75
2023/03/12 01:23:33;;;;;;;59.25;57.05;;;-2.00;89.60;;;;;;5088589;28;20073;-75
2023/03/12 01:25:59;;;;;;;86.60;83.45;;;-2.00;90.20;;;;;;5089180;28;20102;-75
2023/03/12 01:28:25;;;;;;;106.47;102.50;;;-2.00;90.10;;;;;;5090169;28;20024;-75
2023/03/12 01:30:51;;;;;;;158.80;152.95;;;-2.00;90.20;;;;;;5091311;28;20163;-75
2023/03/12 01:33:17;;;;;;;126.82;121.95;;;-1.90;90.30;;;;;;5076589;28;20067;-75
2023/03/12 01:35:43;;;;;;;153.07;147.18;;;-1.90;90.40;;;;;;5072574;28;20472;-75
2023/03/12 01:38:14;;;;;;;114.68;110.50;;;-1.80;90.50;;;;;;5071828;28;20066;-75
2023/03/12 01:40:41;;;;;;;129.25;124.43;;;-1.70;90.40;;;;;;5079757;28;20024;-75
2023/03/12 01:43:29;;;;;;;123.93;119.28;;;-1.70;90.30;;;;;;5084886;28;20110;-75
2023/03/12 01:46:26;;;;;;;159.10;153.00;;;-1.60;90.50;;;;;;5079734;28;20029;-75
2023/03/12 01:49:07;;;;;;;164.05;158.18;;;-1.60;90.70;;;;;;5071784;28;20032;-75
2023/03/12 01:51:40;;;;;;;;;;;-1.60;90.70;;;;;;5089971;28;20028;-75
2023/03/12 01:54:12;;;;;;;55.72;53.58;;;-1.60;90.60;;;;;;5089647;28;19914;-75
2023/03/12 01:56:38;;;;;;;72.80;70.07;;;-1.50;90.60;;;;;;5090192;28;20039;-74
2023/03/12 01:59:11;;;;;;;108.40;104.53;;;-1.50;90.50;;;;;;5087177;28;20082;-75
2023/03/12 02:01:37;;;;;;;105.60;101.80;;;-1.40;90.60;;;;;;5087464;28;20040;-75
2023/03/12 02:04:04;;;;;;;118.65;114.43;;;-1.30;90.50;;;;;;5089954;28;20579;-75
2023/03/12 02:06:37;;;;;;;100.55;96.90;;;-1.20;90.50;;;;;;5089836;28;20504;-74
2023/03/12 02:09:05;;;;;;;96.45;92.78;;;-1.20;90.30;;;;;;5086799;28;20017;-75
2023/03/12 02:11:31;;;;;;;89.88;86.63;;;-1.10;90.40;;;;;;5071273;28;20458;-75
2023/03/12 02:13:57;;;;;;;64.45;62.03;;;-1.10;90.40;;;;;;5082637;28;20474;-75
2023/03/12 02:16:24;;;;;;;68.95;66.45;;;-1.00;89.90;;;;;;5071583;28;20036;-75
2023/03/12 02:18:53;;;;;;;70.03;67.15;;;-1.00;89.30;;;;;;5084380;28;20032;-75
2023/03/12 02:21:28;;;;;;;62.15;59.85;;;-0.90;89.40;;;;;;5087879;28;20032;-75
2023/03/12 02:24:07;;;;;;;50.42;48.60;;;-0.90;88.90;;;;;;5069085;28;20454;-76
2023/03/12 02:26:33;;;;;;;52.58;50.38;;;-0.90;88.60;;;;;;5106941;28;20016;-76
2023/03/12 02:29:00;;;;;;;60.70;58.45;;;-0.80;88.60;;;;;;5084649;28;20031;-76
2023/03/12 02:31:30;;;;;;;61.63;59.33;;;-0.90;88.40;;;;;;5089712;28;20023;-76
2023/03/12 02:33:57;;;;;;;65.97;63.65;;;-0.80;87.60;;;;;;5106511;28;20028;-75
2023/03/12 02:36:22;;;;;;;67.65;65.25;;;-0.80;87.20;;;;;;5102837;28;20089;-76
2023/03/12 02:38:51;;;;;;;59.90;57.70;;;-0.80;87.20;;;;;;5101365;28;20027;-75
2023/03/12 02:41:27;;;;;;;58.45;56.35;;;-0.80;87.20;;;;;;5108608;28;20027;-75
2023/03/12 02:44:08;;;;;;;58.20;55.85;;;-0.70;87.20;;;;;;5090170;28;20063;-75
2023/03/12 02:46:43;;;;;;;56.28;54.20;;;-0.60;87.20;;;;;;5103469;28;20020;-75
2023/03/12 02:49:13;;;;;;;62.80;60.22;;;-0.60;87.10;;;;;;5096551;28;20043;-75
2023/03/12 02:51:40;;;;;;;65.72;63.28;;;-0.50;87.10;;;;;;5099261;28;20031;-76
2023/03/12 02:54:07;;;;;;;57.70;55.58;;;-0.50;86.30;;;;;;5100143;28;20035;-76
2023/03/12 02:56:33;;;;;;;63.17;60.90;;;-0.50;86.40;;;;;;5094920;28;20043;-75
2023/03/12 02:58:59;;;;;;;66.47;63.92;;;-0.50;86.60;;;;;;5074384;28;20031;-75
2023/03/12 03:01:25;;;;;;;72.50;69.85;;;-0.40;86.70;;;;;;5090456;28;20027;-76
2023/03/12 03:03:51;;;;;;;64.43;62.15;;;-0.40;86.80;;;;;;5108168;28;20028;-75
2023/03/12 03:06:17;;;;;;;67.68;65.07;;;-0.40;87.40;;;;;;5107602;28;20038;-75
2023/03/12 03:08:43;;;;;;;60.95;58.70;;;-0.30;87.10;;;;;;5092707;28;20494;-76
2023/03/12 03:11:09;;;;;;;75.35;72.60;;;-0.20;87.20;;;;;;5095255;28;20020;-74
2023/03/12 03:13:35;;;;;;;68.10;65.68;;;-0.20;87.40;;;;;;5101705;28;20043;-75
2023/03/12 03:16:02;;;;;;;74.05;71.25;;;-0.20;87.70;;;;;;5094526;28;20047;-75
2023/03/12 03:18:29;;;;;;;71.32;68.43;;;-0.30;87.80;;;;;;5108799;28;20853;-75
2023/03/12 03:20:56;;;;;;;81.65;78.65;;;-0.30;88.30;;;;;;5095000;28;20036;-75
2023/03/12 03:23:22;;;;;;;86.60;83.30;;;-0.30;89.10;;;;;;5100656;28;20086;-76
2023/03/12 03:25:48;;;;;;;85.72;82.60;;;-0.10;89.10;;;;;;5088611;28;20044;-75
2023/03/12 03:28:13;;;;;;;69.40;66.88;;;-0.10;88.80;;;;;;5088604;28;20023;-76
2023/03/12 03:30:39;;;;;;;69.90;67.25;;;0.00;88.60;;;;;;5073815;28;20036;-75
2023/03/12 03:33:05;;;;;;;76.68;73.88;;;0.10;88.50;;;;;;5088749;28;20051;-75
2023/03/12 03:35:33;;;;;;;119.38;114.82;;;0.00;88.30;;;;;;5097280;28;20020;-74
2023/03/12 03:37:58;;;;;;;95.00;91.47;;;0.10;89.10;;;;;;5091037;28;20430;-77
2023/03/12 03:40:24;;;;;;;148.48;142.85;;;0.00;89.20;;;;;;5093200;28;20048;-75
2023/03/12 03:42:49;;;;;;;212.25;203.55;;;0.00;89.60;;;;;;5075233;28;20082;-75
2023/03/12 03:45:16;;;;;;;229.10;219.95;;;0.00;90.20;;;;;;5094471;28;20020;-75
2023/03/12 03:47:42;;;;;;;275.23;264.17;;;0.10;90.60;;;;;;5092028;28;20032;-78
2023/03/12 03:50:08;;;;;;;381.38;364.63;;;0.20;90.80;;;;;;5092343;28;20818;-76
2023/03/12 03:52:34;;;;;;;361.77;347.67;;;0.20;91.30;;;;;;5075187;28;20043;-77
2023/03/12 03:55:00;;;;;;;402.83;386.95;;;0.30;91.70;;;;;;5092456;28;20186;-75
2023/03/12 03:57:26;;;;;;;372.80;357.90;;;0.30;91.80;;;;;;5095148;28;20038;-74
2023/03/12 03:59:52;;;;;;;365.20;350.45;;;0.40;91.90;;;;;;5070012;28;20089;-77
2023/03/12 04:02:17;;;;;;;409.52;392.50;;;0.40;92.10;;;;;;5093490;28;20036;-74
2023/03/12 04:04:43;;;;;;;379.52;364.15;;;0.40;92.10;;;;;;5092647;28;20020;-75
2023/03/12 04:07:09;;;;;;;325.58;312.52;;;0.50;92.20;;;;;;5078511;28;20428;-75
2023/03/12 04:09:35;;;;;;;560.97;533.63;;;0.50;92.60;;;;;;5092246;28;20084;-75
2023/03/12 04:12:01;;;;;;;447.38;428.05;;;0.50;92.80;;;;;;5092298;28;20028;-75
2023/03/12 04:14:27;;;;;;;451.48;432.05;;;0.60;92.90;;;;;;5072258;28;20502;-75
2023/03/12 04:16:53;;;;;;;503.15;480.10;;;0.60;93.00;;;;;;5093789;28;20036;-74
2023/03/12 04:19:18;;;;;;;520.72;496.58;;;0.70;93.00;;;;;;5092203;28;20031;-76
2023/03/12 04:21:44;;;;;;;505.58;482.13;;;0.70;93.10;;;;;;5093185;28;20032;-75
2023/03/12 04:24:13;;;;;;;545.15;518.97;;;0.60;93.30;;;;;;5090785;28;20058;-77
2023/03/12 04:26:39;;;;;;;521.20;496.02;;;0.60;93.30;;;;;;5095415;28;20035;-76
2023/03/12 04:29:05;;;;;;;572.22;544.45;;;0.60;93.60;;;;;;5096693;28;20118;-74
2023/03/12 04:31:31;;;;;;;558.03;529.72;;;0.70;93.80;;;;;;5095442;28;20111;-75
2023/03/12 04:33:57;;;;;;;582.80;553.70;;;0.80;93.90;;;;;;5100258;27;20180;-74
2023/03/12 04:36:23;;;;;;;603.60;573.28;;;0.80;94.00;;;;;;5098766;28;20028;-76
2023/03/12 04:38:48;;;;;;;628.80;596.97;;;0.90;94.20;;;;;;5118560;27;20028;-75
2023/03/12 04:41:15;;;;;;;618.03;585.83;;;0.90;94.20;;;;;;5116628;27;20012;-75
2023/03/12 04:43:41;;;;;;;619.17;587.38;;;0.90;94.40;;;;;;5119251;27;20038;-76
2023/03/12 04:46:08;;;;;;;601.15;571.22;;;1.00;94.60;;;;;;5117057;27;20024;-74
2023/03/12 04:48:35;;;;;;;688.60;652.83;;;1.00;94.80;;;;;;5120906;27;20035;-74
2023/03/12 04:51:01;;;;;;;709.20;669.30;;;1.00;95.20;;;;;;5115352;27;20031;-76
2023/03/12 04:53:27;;;;;;;705.33;667.03;;;1.00;96.10;;;;;;5117335;27;20061;-77
2023/03/12 04:55:53;;;;;;;697.72;659.58;;;1.10;96.10;;;;;;5084665;27;20024;-74
2023/03/12 04:58:19;;;;;;;688.40;653.00;;;1.10;96.40;;;;;;5097784;27;20064;-76
2023/03/12 05:00:47;;;;;;;735.45;694.75;;;1.10;96.90;;;;;;5117676;27;20032;-75
2023/03/12 05:03:13;;;;;;;750.25;707.97;;;1.20;97.20;;;;;;5117705;27;20058;-76
2023/03/12 05:05:38;;;;;;;797.53;751.55;;;1.20;97.50;;;;;;5117600;27;20477;-74
2023/03/12 05:08:04;;;;;;;770.08;725.42;;;1.20;97.60;;;;;;5099603;27;20028;-75
2023/03/12 05:10:30;;;;;;;823.88;774.63;;;1.20;97.90;;;;;;5115946;27;20032;-75
2023/03/12 05:12:56;;;;;;;1281.10;761.92;;;1.10;98.10;;;;;;5079152;27;20174;-74
2023/03/12 05:15:22;;;;;;;1129.22;840.85;;;1.10;98.30;;;;;;5096834;27;20409;-74
2023/03/12 05:17:48;;;;;;;1115.32;828.58;;;1.20;98.70;;;;;;5120599;27;20115;-76
2023/03/12 05:20:13;;;;;;;1387.53;862.92;;;1.30;98.90;;;;;;5095874;27;20092;-75
2023/03/12 05:22:39;;;;;;;1133.43;842.05;;;1.30;99.20;;;;;;5121902;27;20034;-75
2023/03/12 05:25:06;;;;;;;1134.50;845.65;;;1.30;99.30;;;;;;5118484;27;20078;-76
2023/03/12 05:27:32;;;;;;;832.05;780.78;;;1.30;99.50;;;;;;5099902;27;20027;-75
2023/03/12 05:29:57;;;;;;;890.47;830.13;;;1.30;99.70;;;;;;5117919;27;20019;-74
2023/03/12 05:32:23;;;;;;;1999.90;999.90;;;1.30;99.90;;;;;;5097887;27;20611;-74
2023/03/12 05:34:49;;;;;;;1999.90;999.90;;;1.40;99.90;;;;;;5101950;28;20035;-76
2023/03/12 05:37:14;;;;;;;1999.90;999.90;;;1.30;99.90;;;;;;5118274;27;20027;-74
2023/03/12 05:39:45;;;;;;;1999.90;999.90;;;1.30;99.90;;;;;;5097632;28;20040;-74
2023/03/12 05:42:14;;;;;;;1999.90;999.90;;;1.40;99.90;;;;;;5094240;28;20071;-74
2023/03/12 05:44:41;;;;;;;1266.07;745.72;;;1.40;99.90;;;;;;5111739;27;20023;-74
2023/03/12 05:47:07;;;;;;;1999.90;999.90;;;1.50;99.90;;;;;;5118130;27;20049;-75
2023/03/12 05:49:33;;;;;;;1999.90;999.90;;;1.50;99.90;;;;;;5116797;27;20115;-74
2023/03/12 05:51:58;;;;;;;1999.90;999.90;;;1.60;99.90;;;;;;5109748;28;20085;-74
2023/03/12 05:54:25;;;;;;;1999.90;999.90;;;1.60;99.90;;;;;;5115305;27;20031;-74
2023/03/12 05:56:51;;;;;;;1432.65;904.50;;;1.60;99.90;;;;;;5111465;27;20038;-74
2023/03/12 05:59:17;;;;;;;1999.90;999.90;;;1.70;99.90;;;;;;5070645;28;20035;-74
2023/03/12 06:01:42;;;;;;;1999.90;999.90;;;1.70;99.90;;;;;;5114654;27;20503;-75
2023/03/12 06:04:08;;;;;;;1999.90;999.90;;;1.70;99.90;;;;;;5078755;28;20035;-75
2023/03/12 06:06:35;;;;;;;1999.90;999.90;;;1.70;99.90;;;;;;5090599;28;20027;-74
2023/03/12 06:09:02;;;;;;;869.70;806.75;;;1.60;99.90;;;;;;5114036;27;20031;-74
2023/03/12 06:11:28;;;;;;;1999.90;999.90;;;1.70;99.90;;;;;;5114631;27;20057;-74
2023/03/12 06:13:55;;;;;;;1999.90;999.90;;;1.70;99.90;;;;;;5113207;28;20032;-75
2023/03/12 06:16:23;;;;;;;1999.90;999.90;;;1.80;99.90;;;;;;5113015;27;20103;-74
2023/03/12 06:18:55;;;;;;;1616.15;857.03;;;1.80;99.90;;;;;;5118078;27;20031;-74
2023/03/12 06:21:24;;;;;;;529.50;491.38;;;1.80;99.90;;;;;;5113076;28;20028;-76
2023/03/12 06:23:51;;;;;;;1999.90;999.90;;;1.80;99.90;;;;;;5118800;28;20023;-74
2023/03/12 06:26:17;;;;;;;1999.90;999.90;;;1.90;99.90;;;;;;5114809;28;20356;-75
2023/03/12 06:28:44;;;;;;;1999.90;999.90;;;1.90;99.90;;;;;;5097726;28;20027;-76
2023/03/12 06:31:10;;;;;;;1999.90;999.90;;;1.80;99.90;;;;;;5114089;28;20118;-75
2023/03/12 06:33:36;;;;;;;1211.25;695.28;;;1.80;99.90;;;;;;5098115;28;20561;-76
2023/03/12 06:36:04;;;;;;;1999.90;999.90;;;1.90;99.90;;;;;;5113452;28;20043;-75
2023/03/12 06:38:29;;;;;;;1248.25;728.22;;;1.90;99.90;;;;;;5118813;28;20077;-75
2023/03/12 06:40:59;;;;;;;1999.90;999.90;;;1.80;99.90;;;;;;5094493;28;20470;-74
2023/03/12 06:43:27;;;;;;;1999.90;999.90;;;1.90;99.90;;;;;;5110827;28;20550;-74
2023/03/12 06:45:54;;;;;;;1999.90;999.90;;;1.90;99.90;;;;;;5110912;28;20067;-74
2023/03/12 06:48:20;;;;;;;1999.90;999.90;;;2.00;99.90;;;;;;5113846;28;20027;-74
2023/03/12 06:50:46;;;;;;;1999.90;999.90;;;2.10;99.90;;;;;;5114456;28;20557;-74
2023/03/12 06:53:11;;;;;;;1999.90;999.90;;;2.20;99.90;;;;;;5103762;28;20064;-76
2023/03/12 06:55:37;;;;;;;1999.90;999.90;;;2.20;99.90;;;;;;5116015;28;20031;-74
2023/03/12 06:58:03;;;;;;;1999.90;999.90;;;4.30;99.90;;;;;;5112810;28;20032;-75
2023/03/12 07:00:30;;;;;;;1551.00;794.75;;;4.10;99.90;;;;;;5088605;28;20032;-76
2023/03/12 07:02:55;;;;;;;1103.45;594.70;;;3.70;99.90;;;;;;5089151;28;20374;-76
2023/03/12 07:05:23;;;;;;;1999.90;999.90;;;3.30;99.90;;;;;;5093313;28;20054;-76
2023/03/12 07:07:48;;;;;;;1999.90;999.90;;;3.30;99.90;;;;;;5098315;28;20020;-75
2023/03/12 07:10:14;;;;;;;1999.90;999.90;;;3.40;99.90;;;;;;5111006;27;20754;-74
2023/03/12 07:12:40;;;;;;;1999.90;999.90;;;3.40;99.90;;;;;;5099062;27;20039;-74
2023/03/12 07:15:06;;;;;;;1999.90;999.90;;;3.50;99.90;;;;;;5092504;28;20385;-74
2023/03/12 07:17:32;;;;;;;1999.90;999.90;;;3.30;99.90;;;;;;5115907;27;20046;-74
2023/03/12 07:19:58;;;;;;;1999.90;999.90;;;3.00;99.90;;;;;;5097465;27;20039;-75
2023/03/12 07:22:23;;;;;;;1999.90;999.90;;;2.90;99.90;;;;;;5116746;27;20027;-74
2023/03/12 07:24:50;;;;;;;1999.90;999.90;;;3.10;99.90;;;;;;5117659;27;20077;-77
2023/03/12 07:27:16;;;;;;;1999.90;999.90;;;3.10;99.90;;;;;;5084626;27;20048;-74
2023/03/12 07:29:42;;;;;;;1999.90;999.90;;;3.10;99.90;;;;;;5119993;27;20058;-74
2023/03/12 07:32:08;;;;;;;644.33;382.20;;;3.20;99.90;;;;;;5124331;27;20028;-75
2023/03/12 07:34:33;;;;;;;1999.90;999.90;;;3.30;99.90;;;;;;5117356;27;20042;-76
2023/03/12 07:36:59;;;;;;;1999.90;999.90;;;3.30;99.90;;;;;;5099034;27;20088;-77
2023/03/12 07:39:25;;;;;;;1546.75;792.58;;;3.40;99.90;;;;;;5115768;27;20512;-75
2023/03/12 07:41:51;;;;;;;1999.90;999.90;;;3.60;99.90;;;;;;5119071;27;20492;-76
2023/03/12 07:44:17;;;;;;;1999.90;999.90;;;3.50;99.90;;;;;;5086336;28;20031;-74
2023/03/12 07:46:42;;;;;;;1072.07;564.80;;;3.60;99.90;;;;;;5123813;27;20057;-76
2023/03/12 07:49:08;;;;;;;1999.90;999.90;;;3.60;99.90;;;;;;5100442;27;20514;-76
2023/03/12 07:51:34;;;;;;;341.65;285.92;;;3.70;99.90;;;;;;5122909;27;20031;-76
2023/03/12 07:54:00;;;;;;;1999.90;999.90;;;3.80;99.90;;;;;;5100635;27;20039;-76
2023/03/12 07:56:26;;;;;;;1999.90;999.90;;;3.90;99.90;;;;;;5114928;27;20032;-76
2023/03/12 07:58:51;;;;;;;1999.90;999.90;;;4.00;99.90;;;;;;5109261;27;20537;-77
2023/03/12 08:01:17;;;;;;;1999.90;999.90;;;4.10;99.90;;;;;;5109002;27;20035;-77
2023/03/12 08:03:43;;;;;;;1999.90;999.90;;;4.30;99.90;;;;;;5114932;27;20030;-76
2023/03/12 08:06:08;;;;;;;1592.50;832.70;;;4.30;99.90;;;;;;5099335;27;20397;-77
2023/03/12 08:08:36;;;;;;;1999.90;999.90;;;4.30;99.90;;;;;;5119112;27;20370;-77
2023/03/12 08:11:04;;;;;;;1999.90;999.90;;;4.30;99.90;;;;;;5098502;27;20541;-77
2023/03/12 08:13:30;;;;;;;1999.90;999.90;;;4.40;99.90;;;;;;5097177;28;20039;-77
2023/03/12 08:15:55;;;;;;;1999.90;999.90;;;4.50;99.90;;;;;;5113422;27;20020;-76
2023/03/12 08:18:22;;;;;;;1999.90;999.90;;;4.50;99.90;;;;;;5118050;27;20034;-78
2023/03/12 08:20:52;;;;;;;1999.90;999.90;;;4.50;99.90;;;;;;5115012;27;20073;-78
2023/03/12 08:23:19;;;;;;;1999.90;999.90;;;4.80;99.90;;;;;;5098389;27;20516;-76
2023/03/12 08:25:46;;;;;;;1999.90;999.90;;;5.10;99.90;;;;;;5114028;27;20128;-77
2023/03/12 08:28:12;;;;;;;1999.90;999.90;;;5.00;99.90;;;;;;5108618;27;20033;-77
2023/03/12 08:30:37;;;;;;;1999.90;999.90;;;5.00;99.90;;;;;;5109846;27;20027;-79
2023/03/12 08:33:03;;;;;;;1999.90;999.90;;;5.20;99.90;;;;;;5091782;28;20028;-75
2023/03/12 08:35:29;;;;;;;1999.90;999.90;;;5.30;99.90;;;;;;5112339;27;20032;-75
2023/03/12 08:37:55;;;;;;;1999.90;999.90;;;5.40;99.90;;;;;;5094038;28;20034;-76
2023/03/12 08:40:23;;;;;;;1999.90;999.90;;;5.40;99.90;;;;;;5090705;28;20416;-77
2023/03/12 08:42:48;;;;;;;1999.90;999.90;;;5.80;99.90;;;;;;5107010;28;20035;-78
2023/03/12 08:45:14;;;;;;;1999.90;999.90;;;5.90;99.90;;;;;;5108759;27;20036;-77
2023/03/12 08:47:42;;;;;;;1999.90;999.90;;;6.20;99.90;;;;;;5074868;28;20049;-80
2023/03/12 08:50:10;;;;;;;1145.47;632.70;;;6.20;99.90;;;;;;5074549;28;20027;-79
2023/03/12 08:52:36;;;;;;;1999.90;999.90;;;6.20;99.90;;;;;;5091248;28;20111;-78
2023/03/12 08:55:02;;;;;;;1999.90;999.90;;;6.40;99.90;;;;;;5091252;28;20475;-74
2023/03/12 08:57:28;;;;;;;1999.90;999.90;;;6.60;99.90;;;;;;5083615;28;20043;-75
2023/03/12 08:59:53;;;;;;;1999.90;999.90;;;6.70;99.90;;;;;;5097819;28;20641;-77
2023/03/12 09:02:19;;;;;;;1999.90;999.90;;;6.80;99.90;;;;;;5095468;28;20035;-77
2023/03/12 09:04:49;;;;;;;1999.90;999.90;;;7.00;99.90;;;;;;5091657;28;20024;-79
2023/03/12 09:07:17;;;;;;;1432.57;842.15;;;7.10;99.90;;;;;;5072043;28;20023;-79
2023/03/12 09:09:43;;;;;;;1999.90;999.90;;;7.40;99.90;;;;;;5088460;28;20032;-77
2023/03/12 09:12:09;;;;;;;635.95;568.88;;;7.40;99.90;;;;;;5108891;27;20674;-76
2023/03/12 09:14:35;;;;;;;1263.20;733.08;;;7.80;99.90;;;;;;5109572;28;20532;-79
2023/03/12 09:17:01;;;;;;;1325.22;757.13;;;7.60;99.90;;;;;;5110267;28;20102;-77
2023/03/12 09:19:26;;;;;;;830.17;708.83;;;7.50;99.90;;;;;;5094424;28;20037;-76
2023/03/12 09:21:52;;;;;;;1999.90;999.90;;;7.50;99.90;;;;;;5089670;28;20040;-77
2023/03/12 09:24:18;;;;;;;1999.90;999.90;;;7.50;99.90;;;;;;5088325;28;20122;-76
2023/03/12 09:26:43;;;;;;;1999.90;999.90;;;7.80;99.90;;;;;;5078314;28;20035;-78
2023/03/12 09:29:09;;;;;;;1184.78;656.95;;;7.90;99.90;;;;;;5102403;28;20023;-76
2023/03/12 09:31:35;;;;;;;1999.90;999.90;;;8.10;99.90;;;;;;5100189;28;20024;-77
2023/03/12 09:34:01;;;;;;;693.45;623.92;;;8.10;99.90;;;;;;5108253;28;20023;-77
2023/03/12 09:36:27;;;;;;;1284.75;758.25;;;8.20;99.90;;;;;;5089149;28;20038;-77
2023/03/12 09:38:53;;;;;;;1317.28;786.95;;;8.00;99.90;;;;;;5101000;28;20396;-79
2023/03/12 09:41:28;;;;;;;266.80;238.10;;;8.00;99.90;;;;;;5106131;28;20032;-78
2023/03/12 09:44:17;;;;;;;1999.90;999.90;;;7.90;99.90;;;;;;5102740;28;20028;-78
2023/03/12 09:47:13;;;;;;;861.08;774.35;;;8.20;99.90;;;;;;5079826;28;20065;-76
2023/03/12 09:49:45;;;;;;;1383.57;821.63;;;8.10;99.90;;;;;;5100253;28;20024;-81
2023/03/12 09:52:24;;;;;;;1999.90;999.90;;;8.20;99.90;;;;;;5091002;28;20107;-78
2023/03/12 09:55:13;;;;;;;1999.90;999.90;;;8.70;99.90;;;;;;5105674;28;20032;-80
2023/03/12 09:57:39;;;;;;;923.63;636.95;;;8.80;99.90;;;;;;5101916;28;20059;-80
2023/03/12 10:00:11;;;;;;;448.33;359.92;;;8.60;99.90;;;;;;5090750;28;20096;-78
2023/03/12 10:03:04;;;;;;;896.67;782.88;;;8.70;99.90;;;;;;5101265;28;20028;-77
2023/03/12 10:06:05;;;;;;;1999.90;999.90;;;8.20;99.90;;;;;;5099140;28;20724;-80
2023/03/12 10:08:36;;;;;;;874.85;697.63;;;8.40;99.90;;;;;;5087433;28;20050;-80
2023/03/12 10:11:24;;;;;;;677.25;586.95;;;8.60;99.90;;;;;;5102946;28;20760;-75
2023/03/12 10:13:58;;;;;;;1303.18;773.95;;;8.50;99.90;;;;;;5106507;28;20032;-76
2023/03/12 10:16:38;;;;;;;1999.90;999.90;;;8.60;99.90;;;;;;5096671;28;20023;-75
2023/03/12 10:19:20;;;;;;;981.20;649.17;;;8.80;99.90;;;;;;5088183;28;20405;-74
2023/03/12 10:22:13;;;;;;;1999.90;999.90;;;9.20;99.90;;;;;;5104962;28;20054;-75
2023/03/12 10:24:57;;;;;;;995.88;898.75;;;9.00;99.90;;;;;;5090599;28;20382;-74
2023/03/12 10:27:27;;;;;;;890.60;710.55;;;9.10;99.90;;;;;;5087111;28;20087;-74
2023/03/12 10:29:55;;;;;;;692.65;624.00;;;8.90;99.90;;;;;;5106003;28;20028;-75
2023/03/12 10:32:23;;;;;;;936.00;865.78;;;9.10;99.90;;;;;;5106864;28;20135;-75
2023/03/12 10:35:12;;;;;;;914.10;828.28;;;9.20;99.90;;;;;;5100959;28;20481;-74
2023/03/12 10:37:46;;;;;;;784.58;711.72;;;9.40;99.90;;;;;;5084478;28;20085;-74
2023/03/12 10:40:21;;;;;;;1230.95;918.88;;;9.20;99.90;;;;;;5102137;28;20150;-75
2023/03/12 10:42:47;;;;;;;1065.55;985.20;;;9.40;99.90;;;;;;5074937;28;20075;-75
2023/03/12 10:45:37;;;;;;;931.58;843.72;;;9.20;99.90;;;;;;5093217;28;20043;-76
2023/03/12 10:48:07;;;;;;;932.60;856.63;;;9.20;99.90;;;;;;5109708;28;20038;-77
2023/03/12 10:50:35;;;;;;;839.73;772.33;;;9.20;99.90;;;;;;5113530;28;20023;-75
2023/03/12 10:53:21;;;;;;;1178.03;876.65;;;9.30;99.90;;;;;;5092068;28;20370;-74
2023/03/12 10:56:06;;;;;;;902.78;830.85;;;9.50;99.90;;;;;;5104429;28;20019;-75
2023/03/12 10:58:37;;;;;;;1258.90;952.03;;;9.80;99.90;;;;;;5094349;27;20028;-76
2023/03/12 11:01:14;;;;;;;840.22;755.58;;;10.30;99.90;;;;;;5105905;28;20035;-76
2023/03/12 11:03:41;;;;;;;1045.97;967.13;;;10.00;99.90;;;;;;5094473;28;20486;-77
2023/03/12 11:06:09;;;;;;;1010.70;934.03;;;10.20;99.90;;;;;;5109024;28;20500;-76
2023/03/12 11:08:36;;;;;;;885.67;812.30;;;10.60;99.90;;;;;;5094305;28;20024;-75
2023/03/12 11:11:04;;;;;;;840.30;783.45;;;10.70;99.90;;;;;;5094898;28;20070;-77
2023/03/12 11:13:29;;;;;;;595.00;541.10;;;11.00;99.90;;;;;;5092228;28;20054;-74
2023/03/12 11:16:01;;;;;;;734.78;666.45;;;10.50;99.90;;;;;;5106525;28;20501;-77
2023/03/12 11:18:31;;;;;;;683.35;623.10;;;10.30;99.90;;;;;;5088584;28;20032;-76
2023/03/12 11:21:12;;;;;;;737.83;694.00;;;10.30;99.90;;;;;;5105238;28;20016;-74
2023/03/12 11:24:05;;;;;;;719.53;675.03;;;10.30;99.90;;;;;;5105085;28;20023;-74
2023/03/12 11:26:36;;;;;;;505.23;476.13;;;10.50;99.90;;;;;;5072199;28;20060;-76
2023/03/12 11:29:02;;;;;;;624.08;591.90;;;10.30;99.90;;;;;;5108013;28;20028;-75
2023/03/12 11:31:44;;;;;;;620.60;584.83;;;10.30;99.90;;;;;;5097591;28;20367;-75
2023/03/12 11:34:31;;;;;;;782.03;736.13;;;10.30;99.90;;;;;;5104164;28;20054;-75
2023/03/12 11:37:09;;;;;;;620.80;586.17;;;10.30;99.90;;;;;;5089009;28;20051;-75
2023/03/12 11:39:40;;;;;;;761.85;717.65;;;10.30;99.90;;;;;;5093312;28;20452;-75
2023/03/12 11:42:07;;;;;;;513.90;484.42;;;10.50;99.90;;;;;;5106046;28;20062;-75
2023/03/12 11:44:47;;;;;;;611.95;578.42;;;10.50;99.90;;;;;;5093363;28;20110;-75
2023/03/12 11:47:31;;;;;;;;;;;11.10;99.90;;;;;;5107189;28;20028;-75
2023/03/12 11:50:18;;;;;;;459.10;437.33;;;10.80;99.90;;;;;;5109899;28;20027;-75
2023/03/12 11:52:56;;;;;;;330.70;316.55;;;10.60;99.90;;;;;;5109289;28;20023;-75
2023/03/12 11:56:00;;;;;;;367.98;351.60;;;10.20;99.90;;;;;;5111489;27;20068;-75
2023/03/12 11:58:55;;;;;;;567.35;523.35;;;10.70;99.90;;;;;;5102658;28;20539;-74
2023/03/12 12:01:50;;;;;;;561.35;527.22;;;10.20;99.90;;;;;;5104997;28;20546;-74
2023/03/12 12:04:41;;;;;;;797.33;744.50;;;10.50;99.90;;;;;;5109219;28;20036;-78
2023/03/12 12:07:39;;;;;;;951.50;884.58;;;10.40;99.90;;;;;;5104096;28;20024;-76
2023/03/12 12:10:23;;;;;;;849.83;780.88;;;10.30;99.90;;;;;;5096546;28;20038;-75
2023/03/12 12:13:02;;;;;;;1457.93;917.78;;;9.90;99.90;;;;;;5107906;28;20030;-77
2023/03/12 12:15:59;;;;;;;1255.07;937.97;;;10.10;99.90;;;;;;5090694;28;20032;-75
2023/03/12 12:18:40;;;;;;;947.47;864.55;;;10.30;99.90;;;;;;5062085;28;20058;-74
2023/03/12 12:21:11;;;;;;;929.55;851.33;;;10.40;99.90;;;;;;5095665;28;20059;-74
2023/03/12 12:23:58;;;;;;;753.67;677.83;;;10.10;99.90;;;;;;5107803;28;20028;-74
2023/03/12 12:26:42;;;;;;;858.60;801.90;;;10.00;99.90;;;;;;5107448;28;20031;-73